createdAt,value
2019-01-29T00:00:47.342Z,96.80
2019-01-29T00:03:14.707Z,96.50
2019-01-29T00:05:42.056Z,96.80
2019-01-29T00:08:09.407Z,96.60
2019-01-29T00:10:36.722Z,96.70
2019-01-29T00:13:04.131Z,96.50
2019-01-29T00:15:31.508Z,96.30
2019-01-29T00:17:58.927Z,96.50
2019-01-29T00:20:26.239Z,95.80
2019-01-29T00:22:53.586Z,95.70
2019-01-29T00:25:20.908Z,96.10
2019-01-29T00:27:48.246Z,95.90
2019-01-29T00:30:15.703Z,96.20
2019-01-29T00:32:43.123Z,96.10
2019-01-29T00:35:10.554Z,96.30
2019-01-29T00:37:38.167Z,96.20
2019-01-29T00:40:05.583Z,96.30
2019-01-29T00:42:32.941Z,96.20
2019-01-29T00:45:00.393Z,96.30
2019-01-29T00:47:50.139Z,96.10
2019-01-29T00:50:17.596Z,96.00
2019-01-29T00:52:44.911Z,96.30
2019-01-29T00:55:12.534Z,96.40
2019-01-29T00:57:39.847Z,96.40
2019-01-29T01:00:16.053Z,96.40
2019-01-29T01:02:43.449Z,96.40
2019-01-29T01:05:12.002Z,96.30
2019-01-29T01:07:39.325Z,96.50
2019-01-29T01:10:08.176Z,96.70
2019-01-29T01:12:35.496Z,96.50
2019-01-29T01:15:02.876Z,96.40
2019-01-29T01:17:51.611Z,96.40
2019-01-29T01:20:18.966Z,96.70
2019-01-29T01:22:51.057Z,96.50
2019-01-29T01:25:15.926Z,96.60
2019-01-29T01:27:43.235Z,96.50
2019-01-29T01:30:13.130Z,96.60
2019-01-29T01:32:40.466Z,97.10
2019-01-29T01:35:07.774Z,96.90
2019-01-29T01:37:35.114Z,97.00
2019-01-29T01:40:03.709Z,97.00
2019-01-29T01:42:31.067Z,97.00
2019-01-29T01:44:58.446Z,97.00
2019-01-29T01:47:45.445Z,97.00
2019-01-29T01:50:12.871Z,96.90
2019-01-29T01:52:40.295Z,97.20
2019-01-29T01:55:09.878Z,97.10
2019-01-29T01:57:37.189Z,97.20
2019-01-29T02:00:05.467Z,97.10
2019-01-29T02:02:32.871Z,97.20
2019-01-29T02:05:00.239Z,97.20
2019-01-29T02:07:27.635Z,96.90
2019-01-29T02:10:19.482Z,97.50
2019-01-29T02:12:48.138Z,96.90
2019-01-29T02:15:15.486Z,97.00
2019-01-29T02:17:42.798Z,97.20
2019-01-29T02:20:10.538Z,97.20
2019-01-29T02:22:37.864Z,97.30
2019-01-29T02:25:05.287Z,97.20
2019-01-29T02:27:32.662Z,97.00
2019-01-29T02:29:59.966Z,97.40
2019-01-29T02:32:27.275Z,97.20
2019-01-29T02:34:54.765Z,97.20
2019-01-29T02:37:22.066Z,97.20
2019-01-29T02:39:49.407Z,97.30
2019-01-29T02:42:16.755Z,97.30
2019-01-29T02:44:44.074Z,97.30
2019-01-29T02:47:11.415Z,97.30
2019-01-29T02:49:38.838Z,97.30
2019-01-29T02:52:06.298Z,97.30
2019-01-29T02:54:33.639Z,97.10
2019-01-29T02:57:00.995Z,97.30
2019-01-29T02:59:28.323Z,97.10
2019-01-29T03:01:55.660Z,97.30
2019-01-29T03:04:22.980Z,97.20
2019-01-29T03:06:50.303Z,97.20
2019-01-29T03:09:17.618Z,97.20
2019-01-29T03:11:44.952Z,97.30
2019-01-29T03:14:12.291Z,97.20
2019-01-29T03:16:39.615Z,97.10
2019-01-29T03:19:07.044Z,97.30
2019-01-29T03:21:34.502Z,97.40
2019-01-29T03:24:01.807Z,97.40
2019-01-29T03:26:29.204Z,97.40
2019-01-29T03:28:56.529Z,97.20
2019-01-29T03:31:23.846Z,97.50
2019-01-29T03:33:51.191Z,97.40
2019-01-29T03:36:18.515Z,97.20
2019-01-29T03:38:45.921Z,97.20
2019-01-29T03:41:13.233Z,96.80
2019-01-29T03:43:40.535Z,97.10
2019-01-29T03:46:07.834Z,97.30
2019-01-29T03:48:35.199Z,97.20
2019-01-29T03:51:02.517Z,97.10
2019-01-29T03:53:37.898Z,97.20
2019-01-29T03:55:59.270Z,97.10
2019-01-29T03:58:26.601Z,97.30
2019-01-29T04:00:53.940Z,97.10
2019-01-29T04:03:21.267Z,97.10
2019-01-29T04:05:48.654Z,97.20
2019-01-29T04:08:16.069Z,97.00
2019-01-29T04:10:43.491Z,97.60
2019-01-29T04:13:10.856Z,97.10
2019-01-29T04:15:38.173Z,97.20
2019-01-29T04:18:05.645Z,97.00
2019-01-29T04:20:32.942Z,97.10
2019-01-29T04:23:00.255Z,97.30
2019-01-29T04:25:27.582Z,97.20
2019-01-29T04:27:54.964Z,97.40
2019-01-29T04:30:22.387Z,97.20
2019-01-29T04:32:49.913Z,97.30
2019-01-29T04:35:17.339Z,97.40
2019-01-29T04:37:44.779Z,97.50
2019-01-29T04:40:14.170Z,97.20
2019-01-29T04:42:41.559Z,97.20
2019-01-29T04:45:10.219Z,97.40
2019-01-29T04:47:39.412Z,97.30
2019-01-29T04:50:08.953Z,97.20
2019-01-29T04:52:36.254Z,97.20
2019-01-29T04:55:04.187Z,97.30
2019-01-29T04:57:31.527Z,97.40
2019-01-29T04:59:58.918Z,97.60
2019-01-29T05:02:26.238Z,97.40
2019-01-29T05:04:53.549Z,97.50
2019-01-29T05:07:20.893Z,97.20
2019-01-29T05:09:48.603Z,97.30
2019-01-29T05:12:15.927Z,97.40
2019-01-29T05:14:43.261Z,97.60
2019-01-29T05:17:10.576Z,97.60
2019-01-29T05:19:37.891Z,97.50
2019-01-29T05:22:05.348Z,97.60
2019-01-29T05:24:32.768Z,97.40
2019-01-29T05:27:00.172Z,97.50
2019-01-29T05:29:27.528Z,97.30
2019-01-29T05:31:54.860Z,97.50
2019-01-29T05:34:22.251Z,97.50
2019-01-29T05:36:49.559Z,97.50
2019-01-29T05:39:16.917Z,97.40
2019-01-29T05:41:44.340Z,97.50
2019-01-29T05:44:11.773Z,97.20
2019-01-29T05:47:22.390Z,97.40
2019-01-29T05:49:49.750Z,97.20
2019-01-29T05:52:17.046Z,97.20
2019-01-29T05:54:44.388Z,97.30
2019-01-29T05:57:11.727Z,97.40
2019-01-29T05:59:39.046Z,97.30
2019-01-29T06:02:06.386Z,97.70
2019-01-29T06:04:33.708Z,97.20
2019-01-29T06:07:01.061Z,97.40
2019-01-29T06:09:28.495Z,97.60
2019-01-29T06:11:55.943Z,97.50
2019-01-29T06:18:32.579Z,97.40
2019-01-29T06:20:59.919Z,97.50
2019-01-29T06:23:27.222Z,97.40
2019-01-29T06:25:54.532Z,97.50
2019-01-29T06:28:21.856Z,97.40
2019-01-29T06:30:49.176Z,97.30
2019-01-29T06:33:16.668Z,97.50
2019-01-29T06:36:04.983Z,97.30
2019-01-29T06:41:31.195Z,97.20
2019-01-29T06:48:01.901Z,97.00
2019-01-29T06:50:33.375Z,97.20
2019-01-29T06:53:00.744Z,97.10
2019-01-29T06:55:28.188Z,97.20
2019-01-29T06:57:56.197Z,97.30
2019-01-29T07:00:25.744Z,97.40
2019-01-29T07:02:53.050Z,97.30
2019-01-29T07:05:20.372Z,97.00
2019-01-29T07:07:47.695Z,97.70
2019-01-29T07:10:15.966Z,97.20
2019-01-29T07:12:43.401Z,97.10
2019-01-29T07:15:22.003Z,97.00
2019-01-29T07:17:49.779Z,97.40
2019-01-29T07:20:17.112Z,97.10
2019-01-29T07:22:44.448Z,97.20
2019-01-29T07:25:11.767Z,97.00
2019-01-29T07:27:39.224Z,97.00
2019-01-29T07:30:08.629Z,96.80
2019-01-29T07:32:35.987Z,97.00
2019-01-29T07:35:03.562Z,96.70
2019-01-29T07:37:30.910Z,96.90
2019-01-29T07:39:58.224Z,96.90
2019-01-29T07:42:25.526Z,97.00
2019-01-29T07:44:52.870Z,96.70
2019-01-29T07:47:20.236Z,96.60
2019-01-29T07:49:47.557Z,96.80
2019-01-29T07:52:14.883Z,96.40
2019-01-29T07:54:42.179Z,96.40
2019-01-29T07:57:09.587Z,96.40
2019-01-29T08:00:44.841Z,96.40
2019-01-29T08:03:12.291Z,96.10
2019-01-29T08:05:39.662Z,96.40
2019-01-29T08:08:06.984Z,96.50
2019-01-29T08:10:34.267Z,96.50
2019-01-29T08:13:01.600Z,96.30
2019-01-29T08:15:30.299Z,95.90
2019-01-29T08:17:57.683Z,96.60
2019-01-29T08:20:25.080Z,95.80
2019-01-29T08:22:52.382Z,95.30
2019-01-29T08:25:19.699Z,96.00
2019-01-29T08:27:47.032Z,95.90
2019-01-29T08:30:20.110Z,95.50
2019-01-29T08:32:47.427Z,95.70
2019-01-29T08:35:14.788Z,96.10
2019-01-29T08:37:42.094Z,96.20
2019-01-29T08:40:09.411Z,95.80
2019-01-29T08:42:36.758Z,95.40
2019-01-29T08:45:04.519Z,95.30
2019-01-29T08:47:31.827Z,95.60
2019-01-29T08:49:59.149Z,95.00
2019-01-29T08:52:26.456Z,95.90
2019-01-29T08:54:53.768Z,95.30
2019-01-29T08:57:21.095Z,95.40
2019-01-29T09:00:16.248Z,95.30
2019-01-29T09:02:43.599Z,94.90
2019-01-29T09:05:10.927Z,95.10
2019-01-29T09:07:38.327Z,95.30
2019-01-29T09:10:07.306Z,94.80
2019-01-29T09:12:34.641Z,95.20
2019-01-29T09:15:02.070Z,94.30
2019-01-29T09:17:29.424Z,95.10
2019-01-29T09:19:56.774Z,94.50
2019-01-29T09:22:24.208Z,95.00
2019-01-29T09:24:51.509Z,95.10
2019-01-29T09:27:18.824Z,94.80
2019-01-29T09:29:46.167Z,95.00
2019-01-29T09:32:13.486Z,94.60
2019-01-29T09:34:40.778Z,94.90
2019-01-29T09:37:08.128Z,94.50
2019-01-29T09:39:35.441Z,95.10
2019-01-29T09:42:02.843Z,94.80
2019-01-29T09:44:30.286Z,94.70
2019-01-29T09:46:57.591Z,94.50
2019-01-29T09:49:24.901Z,94.90
2019-01-29T09:51:52.228Z,95.00
2019-01-29T09:54:19.543Z,94.70
2019-01-29T09:57:06.604Z,94.60
2019-01-29T09:59:33.940Z,94.20
2019-01-29T10:02:01.262Z,94.10
2019-01-29T10:04:28.680Z,94.40
2019-01-29T10:06:56.067Z,94.60
2019-01-29T10:09:23.407Z,94.20
2019-01-29T10:11:50.727Z,94.60
2019-01-29T10:14:18.045Z,94.60
2019-01-29T10:16:45.456Z,94.60
2019-01-29T10:19:12.799Z,93.70
2019-01-29T10:21:40.107Z,94.20
2019-01-29T10:24:07.433Z,93.90
2019-01-29T10:26:34.743Z,93.90
2019-01-29T10:29:02.051Z,93.80
2019-01-29T10:31:29.370Z,94.10
2019-01-29T10:33:56.711Z,93.70
2019-01-29T10:36:24.002Z,94.00
2019-01-29T10:38:51.311Z,93.60
2019-01-29T10:41:18.639Z,93.90
2019-01-29T10:43:45.966Z,93.10
2019-01-29T10:46:37.662Z,93.90
2019-01-29T10:49:06.906Z,93.00
2019-01-29T10:51:34.328Z,93.80
2019-01-29T10:54:01.659Z,93.10
2019-01-29T10:57:28.115Z,93.40
2019-01-29T10:59:57.322Z,93.30
2019-01-29T11:02:24.665Z,93.20
2019-01-29T11:04:52.067Z,91.80
2019-01-29T11:07:19.378Z,93.30
2019-01-29T11:09:48.407Z,92.90
2019-01-29T11:12:16.325Z,93.10
2019-01-29T11:14:43.727Z,92.70
2019-01-29T11:17:11.058Z,92.60
2019-01-29T11:19:38.375Z,92.60
2019-01-29T11:22:05.718Z,93.30
2019-01-29T11:24:33.035Z,93.00
2019-01-29T11:27:00.375Z,92.80
2019-01-29T11:29:27.703Z,91.10
2019-01-29T11:31:55.007Z,92.40
2019-01-29T11:34:22.339Z,91.80
2019-01-29T11:36:49.726Z,92.50
2019-01-29T11:39:17.133Z,91.10
2019-01-29T11:41:44.495Z,91.60
2019-01-29T11:44:11.915Z,91.50
2019-01-29T11:46:39.224Z,91.80
2019-01-29T11:49:06.552Z,91.70
2019-01-29T11:51:33.988Z,92.00
2019-01-29T11:54:01.320Z,92.00
2019-01-29T11:56:28.623Z,91.30
2019-01-29T11:58:55.949Z,91.10
2019-01-29T12:01:25.571Z,91.10
2019-01-29T12:04:12.332Z,91.50
2019-01-29T12:06:39.692Z,91.40
2019-01-29T12:09:08.335Z,91.00
2019-01-29T12:11:35.658Z,90.90
2019-01-29T12:14:02.987Z,91.40
2019-01-29T12:16:30.301Z,90.20
2019-01-29T12:18:58.397Z,91.20
2019-01-29T12:21:25.866Z,91.60
2019-01-29T12:23:53.194Z,92.20
2019-01-29T12:26:20.507Z,91.50
2019-01-29T12:28:47.853Z,92.00
2019-01-29T12:31:15.192Z,91.20
2019-01-29T12:33:42.488Z,91.20
2019-01-29T12:36:09.814Z,91.50
2019-01-29T12:38:37.131Z,91.00
2019-01-29T12:41:04.451Z,91.00
2019-01-29T12:43:51.252Z,91.40
2019-01-29T12:46:38.025Z,91.20
2019-01-29T12:49:05.551Z,91.20
2019-01-29T12:51:47.093Z,90.30
2019-01-29T12:54:14.426Z,91.00
2019-01-29T12:56:41.711Z,91.40
2019-01-29T12:59:09.026Z,91.70
2019-01-29T13:01:36.354Z,91.80
2019-01-29T13:04:03.653Z,91.60
2019-01-29T13:06:30.958Z,90.50
2019-01-29T13:09:17.717Z,90.30
2019-01-29T13:12:04.736Z,91.00
2019-01-29T13:14:32.063Z,90.90
2019-01-29T13:16:59.379Z,91.00
2019-01-29T13:19:26.658Z,91.20
2019-01-29T13:21:53.971Z,90.10
2019-01-29T13:24:21.265Z,90.00
2019-01-29T13:26:48.570Z,90.70
2019-01-29T13:29:15.902Z,91.10
2019-01-29T13:31:43.238Z,90.70
2019-01-29T13:34:10.540Z,90.40
2019-01-29T13:36:37.882Z,90.70
2019-01-29T13:39:07.238Z,90.50
2019-01-29T13:41:34.541Z,90.80
2019-01-29T13:44:01.873Z,90.70
2019-01-29T13:46:29.167Z,90.40
2019-01-29T13:48:56.474Z,89.10
2019-01-29T13:51:23.840Z,89.40
2019-01-29T13:53:51.126Z,90.30
2019-01-29T13:56:18.420Z,90.00
2019-01-29T13:58:45.735Z,90.20
2019-01-29T14:01:13.029Z,87.00
2019-01-29T14:03:40.310Z,89.30
2019-01-29T14:06:07.641Z,90.90
2019-01-29T14:08:34.963Z,89.90
2019-01-29T14:11:02.273Z,88.70
2019-01-29T14:13:29.591Z,89.90
2019-01-29T14:16:16.367Z,90.50
2019-01-29T14:18:43.742Z,89.80
2019-01-29T14:21:11.094Z,89.70
2019-01-29T14:23:38.385Z,90.40
2019-01-29T14:26:05.707Z,90.80
2019-01-29T14:28:52.493Z,90.70
2019-01-29T14:31:19.810Z,90.40
2019-01-29T14:33:47.141Z,90.60
2019-01-29T14:36:16.726Z,90.30
2019-01-29T14:39:20.574Z,91.30
2019-01-29T14:41:47.858Z,90.50
2019-01-29T14:44:27.399Z,90.50
2019-01-29T14:46:54.707Z,90.70
2019-01-29T14:49:22.026Z,90.60
2019-01-29T14:51:49.406Z,90.70
2019-01-29T14:54:16.699Z,90.40
2019-01-29T14:56:44.017Z,89.30
2019-01-29T14:59:11.293Z,90.80
2019-01-29T15:01:38.574Z,90.90
2019-01-29T15:04:05.899Z,90.60
2019-01-29T15:06:33.316Z,91.30
2019-01-29T15:09:00.615Z,91.20
2019-01-29T15:11:28.106Z,91.20
2019-01-29T15:13:55.499Z,90.60
2019-01-29T15:16:47.957Z,90.90
2019-01-29T15:19:17.953Z,90.60
2019-01-29T15:21:45.264Z,91.70
2019-01-29T15:24:12.582Z,90.90
2019-01-29T15:26:39.888Z,91.10
2019-01-29T15:29:07.298Z,90.60
2019-01-29T15:31:34.618Z,91.10
2019-01-29T15:34:02.007Z,91.30
2019-01-29T15:36:29.307Z,91.20
2019-01-29T15:38:56.610Z,91.40
2019-01-29T15:41:43.399Z,91.30
2019-01-29T15:44:10.784Z,91.10
2019-01-29T15:46:38.082Z,91.70
2019-01-29T15:49:05.394Z,91.70
2019-01-29T15:51:32.682Z,91.80
2019-01-29T15:53:59.962Z,91.70
2019-01-29T15:56:46.733Z,91.80
2019-01-29T15:59:14.491Z,91.80
2019-01-29T16:01:41.811Z,91.90
2019-01-29T16:04:09.156Z,91.10
2019-01-29T16:06:55.947Z,91.50
2019-01-29T16:09:23.419Z,91.40
2019-01-29T16:11:50.759Z,91.60
2019-01-29T16:14:18.156Z,91.70
2019-01-29T16:16:45.521Z,91.60
2019-01-29T16:19:12.943Z,91.50
2019-01-29T16:21:40.236Z,91.80
2019-01-29T16:24:07.591Z,91.70
2019-01-29T16:26:34.939Z,91.50
2019-01-29T16:29:02.236Z,92.00
2019-01-29T16:31:29.583Z,91.70
2019-01-29T16:33:56.872Z,91.80
2019-01-29T16:36:43.651Z,92.10
2019-01-29T16:39:10.965Z,91.70
2019-01-29T16:41:38.374Z,91.70
2019-01-29T16:44:05.726Z,91.60
2019-01-29T16:46:33.044Z,91.90
2019-01-29T16:49:00.364Z,92.00
2019-01-29T16:51:27.719Z,92.00
2019-01-29T16:53:55.043Z,91.80
2019-01-29T16:56:22.347Z,91.70
2019-01-29T16:58:49.688Z,92.00
2019-01-29T17:01:17.086Z,92.00
2019-01-29T17:03:44.426Z,91.70
2019-01-29T17:06:11.731Z,92.20
2019-01-29T17:08:39.122Z,91.80
2019-01-29T17:13:51.871Z,91.70
2019-01-29T17:16:19.212Z,91.80
2019-01-29T17:18:46.604Z,91.90
2019-01-29T17:21:13.927Z,91.80
2019-01-29T17:23:41.330Z,92.00
2019-01-29T17:26:08.783Z,92.00
2019-01-29T17:28:36.196Z,91.90
2019-01-29T17:31:03.630Z,92.30
2019-01-29T17:33:31.241Z,92.30
2019-01-29T17:35:58.604Z,92.10
2019-01-29T17:38:26.092Z,92.20
2019-01-29T17:40:53.397Z,92.10
2019-01-29T17:43:20.811Z,92.20
2019-01-29T17:45:48.849Z,92.00
2019-01-29T17:48:16.435Z,92.20
2019-01-29T17:50:44.110Z,92.30
2019-01-29T17:53:11.555Z,92.60
2019-01-29T17:55:40.132Z,92.30
2019-01-29T17:58:08.511Z,92.20
2019-01-29T18:00:36.578Z,92.40
2019-01-29T18:03:05.020Z,92.40
2019-01-29T18:05:34.869Z,92.60
2019-01-29T18:08:01.754Z,92.40
2019-01-29T18:10:29.203Z,92.40
2019-01-29T18:12:56.590Z,92.50
2019-01-29T18:15:25.609Z,92.50
2019-01-29T18:17:52.905Z,92.50
2019-01-29T18:20:20.238Z,92.50
2019-01-29T18:22:47.565Z,92.50
2019-01-29T18:25:15.436Z,92.60
2019-01-29T18:27:42.883Z,92.50
2019-01-29T18:30:13.539Z,92.60
2019-01-29T18:32:40.926Z,92.50
2019-01-29T18:35:08.373Z,92.70
2019-01-29T18:37:35.709Z,92.50
2019-01-29T18:40:04.231Z,92.50
2019-01-29T18:42:51.101Z,92.60
2019-01-29T18:45:19.975Z,92.50
2019-01-29T18:47:47.293Z,92.60
2019-01-29T18:50:15.255Z,92.80
2019-01-29T18:52:42.559Z,92.70
2019-01-29T18:55:10.126Z,92.80
2019-01-29T18:57:37.757Z,92.50
2019-01-29T19:00:07.871Z,92.70
2019-01-29T19:02:35.202Z,92.90
2019-01-29T19:05:02.627Z,92.70
2019-01-29T19:07:29.934Z,92.80
2019-01-29T19:09:57.231Z,92.60
2019-01-29T19:12:24.521Z,92.80
2019-01-29T19:14:51.811Z,93.00
2019-01-29T19:17:19.118Z,92.90
2019-01-29T19:19:46.438Z,92.70
2019-01-29T19:22:13.767Z,92.70
2019-01-29T19:24:41.058Z,92.70
2019-01-29T19:27:08.394Z,93.10
2019-01-29T19:29:35.739Z,92.60
2019-01-29T19:32:03.010Z,92.70
2019-01-29T19:34:30.322Z,92.70
2019-01-29T19:36:57.638Z,92.80
2019-01-29T19:39:24.933Z,92.90
2019-01-29T19:41:52.425Z,92.80
2019-01-29T19:44:20.020Z,92.70
2019-01-29T19:46:47.452Z,92.80
2019-01-29T19:49:14.902Z,92.90
2019-01-29T19:51:42.384Z,92.80
2019-01-29T19:54:09.704Z,92.80
2019-01-29T19:56:37.004Z,93.00
2019-01-29T19:59:04.380Z,92.80
2019-01-29T20:01:31.956Z,92.90
2019-01-29T20:03:59.463Z,92.80
2019-01-29T20:06:26.786Z,92.70
2019-01-29T20:08:54.086Z,93.00
2019-01-29T20:11:21.535Z,93.00
2019-01-29T20:13:48.921Z,92.90
2019-01-29T20:16:16.219Z,93.00
2019-01-29T20:18:43.535Z,93.10
2019-01-29T20:21:10.986Z,92.90
2019-01-29T20:23:38.304Z,93.10
2019-01-29T20:26:05.603Z,92.50
2019-01-29T20:28:41.998Z,92.90
2019-01-29T20:31:02.228Z,92.90
2019-01-29T20:33:29.519Z,92.60
2019-01-29T20:35:56.868Z,92.70
2019-01-29T20:38:24.274Z,92.90
2019-01-29T20:40:51.555Z,92.80
2019-01-29T20:43:18.866Z,92.90
2019-01-29T20:45:46.202Z,92.90
2019-01-29T20:48:13.587Z,92.90
2019-01-29T20:50:41.023Z,92.80
2019-01-29T20:53:08.325Z,93.00
2019-01-29T20:55:35.622Z,93.00
2019-01-29T20:58:03.074Z,93.00
2019-01-29T21:00:32.276Z,93.10
2019-01-29T21:02:59.592Z,93.30
2019-01-29T21:05:26.999Z,92.90
2019-01-29T21:07:54.298Z,93.00
2019-01-29T21:10:21.637Z,93.00
2019-01-29T21:12:49.065Z,93.00
2019-01-29T21:15:17.726Z,93.00
2019-01-29T21:17:45.043Z,92.90
2019-01-29T21:20:17.466Z,93.10
2019-01-29T21:22:44.754Z,93.00
2019-01-29T21:25:31.581Z,92.90
2019-01-29T21:27:58.994Z,93.00
2019-01-29T21:30:34.054Z,93.20
2019-01-29T21:33:01.362Z,93.10
2019-01-29T21:35:28.663Z,93.10
2019-01-29T21:37:55.971Z,93.10
2019-01-29T21:40:23.274Z,93.10
2019-01-29T21:43:10.058Z,93.30
2019-01-29T21:45:37.361Z,92.80
2019-01-29T21:48:05.008Z,93.00
2019-01-29T21:50:32.638Z,93.00
2019-01-29T21:52:59.937Z,92.80
2019-01-29T21:55:27.260Z,93.00
2019-01-29T21:57:54.634Z,93.30
2019-01-29T22:00:33.434Z,93.00
2019-01-29T22:03:00.875Z,92.90
2019-01-29T22:05:31.543Z,93.00
2019-01-29T22:08:01.774Z,93.00
2019-01-29T22:10:29.082Z,93.10
2019-01-29T22:12:56.396Z,93.10
2019-01-29T22:15:26.716Z,93.20
2019-01-29T22:17:54.107Z,93.10
2019-01-29T22:20:21.424Z,93.00
2019-01-29T22:22:50.170Z,92.80
2019-01-29T22:25:18.151Z,93.00
2019-01-29T22:27:45.490Z,93.00
2019-01-29T22:30:33.248Z,93.10
2019-01-29T22:33:00.852Z,93.00
2019-01-29T22:35:28.210Z,93.00
2019-01-29T22:37:55.587Z,93.00
2019-01-29T22:40:24.171Z,92.90
2019-01-29T22:42:51.484Z,93.10
2019-01-29T22:45:38.270Z,93.50
2019-01-29T22:48:07.215Z,93.00
2019-01-29T22:50:36.878Z,92.90
2019-01-29T22:53:04.456Z,93.20
2019-01-29T22:55:31.738Z,93.00
2019-01-29T22:57:59.130Z,93.30
2019-01-29T23:01:06.198Z,92.90
2019-01-29T23:03:42.245Z,92.90
2019-01-29T23:06:21.411Z,93.10
2019-01-29T23:08:48.681Z,93.00
2019-01-29T23:11:15.978Z,93.00
2019-01-29T23:13:43.286Z,92.80
2019-01-29T23:16:10.571Z,92.90
2019-01-29T23:18:57.355Z,93.10
2019-01-29T23:21:24.665Z,93.10
2019-01-29T23:23:51.965Z,93.00
2019-01-29T23:26:19.359Z,93.10
2019-01-29T23:28:46.667Z,92.90
2019-01-29T23:31:13.967Z,92.90
2019-01-29T23:33:41.278Z,93.00
2019-01-29T23:36:08.584Z,93.00
2019-01-29T23:38:55.361Z,93.00
2019-01-29T23:41:22.679Z,92.80
2019-01-29T23:43:49.962Z,93.10
2019-01-29T23:46:17.166Z,93.00
2019-01-29T23:48:44.546Z,93.30
2019-01-29T23:51:11.835Z,92.90
2019-01-29T23:53:39.122Z,92.90
2019-01-29T23:56:07.019Z,92.90
2019-01-29T23:58:34.294Z,93.10
